National Weather Service Raw Text Product

Displaying AFOS PIL: TAFFOD Received: 2017-12-07 23:30 UTC


817 
FTUS43 KDMX 072330
TAFFOD
TAF
KFOD 072330Z 0800/0824 25009KT P6SM FEW250
     FM080800 22005KT P6SM VCSH OVC060
     FM081500 28007KT P6SM BKN250=